WAT2918 LHBP-EDDF
Flight info
| Callsign | WAT2918 |
|---|---|
| Flight time | 1h 29m |
| Altitude | 34000 |
| Route | GILEP DCT ZOLKU DCT BEGLA DCT DITIS DCT RAPET T170 VAGAB/N0415F240 T170 GAPLA T178 KERAX KERAX5A |
| Aircraft | A320/M-SDE3FGHIRWY/LB1 |
Departure
| Time | 2026-05-03 21:49 |
|---|---|
| Airport | Budapest Liszt Ferenc International Airport (LHBP) |
Arrival
| Time | 2026-05-03 23:18 |
|---|---|
| Airport | Frankfurt Main Airport (EDDF) |
| Time | Latitude | Longitude | Altitude | Speed | Heading |
|---|---|---|---|---|---|
| 2026-05-03 21:34 | 47.43539 | 19.26435 | 474 ft | 0 kts | 221° |
| 2026-05-03 21:41 | 47.43547 | 19.26446 | 474 ft | 2 kts | 221° |
| 2026-05-03 21:41 | 47.43559 | 19.26461 | 474 ft | 2 kts | 222° |
| 2026-05-03 21:41 | 47.43566 | 19.26480 | 474 ft | 2 kts | 263° |
| 2026-05-03 21:42 | 47.43565 | 19.26502 | 474 ft | 2 kts | 295° |
| 2026-05-03 21:42 | 47.43560 | 19.26513 | 474 ft | 1 kts | 314° |
| 2026-05-03 21:42 | 47.43556 | 19.26518 | 474 ft | 0 kts | 311° |
| 2026-05-03 21:44 | 47.43556 | 19.26519 | 474 ft | 0 kts | 311° |
| 2026-05-03 21:44 | 47.43558 | 19.26515 | 474 ft | 0 kts | 311° |
| 2026-05-03 21:44 | 47.43559 | 19.26515 | 474 ft | 0 kts | 311° |
| 2026-05-03 21:45 | 47.43560 | 19.26512 | 474 ft | 1 kts | 310° |
| 2026-05-03 21:45 | 47.43577 | 19.26483 | 474 ft | 6 kts | 310° |
| 2026-05-03 21:45 | 47.43619 | 19.26414 | 474 ft | 11 kts | 311° |
| 2026-05-03 21:45 | 47.43701 | 19.26362 | 475 ft | 15 kts | 22° |
| 2026-05-03 21:46 | 47.43803 | 19.26377 | 477 ft | 17 kts | 322° |
| 2026-05-03 21:46 | 47.43879 | 19.26247 | 478 ft | 17 kts | 314° |
| 2026-05-03 21:46 | 47.43974 | 19.26109 | 479 ft | 20 kts | 316° |
| 2026-05-03 21:46 | 47.44066 | 19.25949 | 482 ft | 21 kts | 313° |
| 2026-05-03 21:47 | 47.44175 | 19.25783 | 485 ft | 23 kts | 314° |
| 2026-05-03 21:47 | 47.44249 | 19.25654 | 486 ft | 16 kts | 310° |
| 2026-05-03 21:47 | 47.44346 | 19.25550 | 489 ft | 18 kts | 343° |
| 2026-05-03 21:47 | 47.44466 | 19.25598 | 493 ft | 18 kts | 46° |
| 2026-05-03 21:48 | 47.44511 | 19.25784 | 492 ft | 21 kts | 102° |
| 2026-05-03 21:48 | 47.44481 | 19.25855 | 490 ft | 19 kts | 130° |
| 2026-05-03 21:48 | 47.44188 | 19.26339 | 482 ft | 103 kts | 130° |
| 2026-05-03 21:48 | 47.43554 | 19.27368 | 475 ft | 165 kts | 131° |
| 2026-05-03 21:49 | 47.42765 | 19.28619 | 1161 ft | 166 kts | 133° |
| 2026-05-03 21:49 | 47.42004 | 19.29882 | 1853 ft | 167 kts | 128° |
| 2026-05-03 21:49 | 47.41370 | 19.31308 | 2476 ft | 173 kts | 118° |
| 2026-05-03 21:49 | 47.40813 | 19.33019 | 2902 ft | 194 kts | 117° |
| 2026-05-03 21:50 | 47.40160 | 19.34832 | 3412 ft | 212 kts | 119° |
| 2026-05-03 21:50 | 47.39422 | 19.36811 | 3956 ft | 229 kts | 119° |
| 2026-05-03 21:50 | 47.38613 | 19.38889 | 4658 ft | 239 kts | 124° |
| 2026-05-03 21:50 | 47.37350 | 19.40544 | 5284 ft | 254 kts | 154° |
| 2026-05-03 21:51 | 47.35600 | 19.41007 | 5974 ft | 267 kts | 184° |
| 2026-05-03 21:51 | 47.33862 | 19.40069 | 6800 ft | 275 kts | 214° |
| 2026-05-03 21:51 | 47.32633 | 19.37905 | 7605 ft | 283 kts | 240° |
| 2026-05-03 21:51 | 47.31712 | 19.35310 | 8382 ft | 289 kts | 241° |
| 2026-05-03 21:52 | 47.30756 | 19.32689 | 9135 ft | 295 kts | 240° |
| 2026-05-03 21:52 | 47.29771 | 19.30034 | 9909 ft | 300 kts | 240° |
| 2026-05-03 21:52 | 47.28746 | 19.27292 | 10590 ft | 309 kts | 240° |
| 2026-05-03 21:52 | 47.27680 | 19.24449 | 11004 ft | 326 kts | 240° |
| 2026-05-03 21:53 | 47.26564 | 19.21480 | 11362 ft | 344 kts | 240° |
| 2026-05-03 21:53 | 47.25373 | 19.18317 | 11703 ft | 362 kts | 240° |
| 2026-05-03 21:53 | 47.24136 | 19.15037 | 12264 ft | 371 kts | 240° |
| 2026-05-03 21:53 | 47.22884 | 19.11721 | 12995 ft | 374 kts | 241° |
| 2026-05-03 21:54 | 47.21615 | 19.08361 | 13717 ft | 377 kts | 241° |
| 2026-05-03 21:54 | 47.20578 | 19.04803 | 14350 ft | 381 kts | 258° |
| 2026-05-03 21:54 | 47.20481 | 19.00974 | 15003 ft | 381 kts | 281° |
| 2026-05-03 21:54 | 47.21350 | 18.97287 | 15668 ft | 380 kts | 302° |
| 2026-05-03 21:55 | 47.22902 | 18.94194 | 16322 ft | 380 kts | 311° |
| 2026-05-03 21:55 | 47.24568 | 18.91176 | 16950 ft | 384 kts | 311° |
| 2026-05-03 21:55 | 47.26250 | 18.88102 | 17571 ft | 387 kts | 311° |
| 2026-05-03 21:55 | 47.27942 | 18.84967 | 18200 ft | 390 kts | 310° |
| 2026-05-03 21:56 | 47.29608 | 18.81857 | 18806 ft | 392 kts | 310° |
| 2026-05-03 21:56 | 47.31305 | 18.78669 | 19409 ft | 395 kts | 310° |
| 2026-05-03 21:56 | 47.32991 | 18.75492 | 19997 ft | 398 kts | 310° |
| 2026-05-03 21:56 | 47.34705 | 18.72250 | 20578 ft | 400 kts | 310° |
| 2026-05-03 21:57 | 47.36422 | 18.69000 | 21138 ft | 403 kts | 310° |
| 2026-05-03 21:57 | 47.38163 | 18.65704 | 21704 ft | 405 kts | 310° |
| 2026-05-03 21:57 | 47.39866 | 18.62387 | 22251 ft | 409 kts | 307° |
| 2026-05-03 21:57 | 47.41340 | 18.58754 | 22780 ft | 413 kts | 299° |
| 2026-05-03 21:58 | 47.42491 | 18.54838 | 23310 ft | 417 kts | 291° |
| 2026-05-03 21:58 | 47.43380 | 18.50750 | 23813 ft | 420 kts | 289° |
| 2026-05-03 21:58 | 47.44203 | 18.46611 | 24266 ft | 423 kts | 288° |
| 2026-05-03 21:58 | 47.45029 | 18.42419 | 24698 ft | 426 kts | 289° |
| 2026-05-03 21:59 | 47.45874 | 18.38172 | 25125 ft | 429 kts | 289° |
| 2026-05-03 21:59 | 47.46713 | 18.33996 | 25541 ft | 431 kts | 288° |
| 2026-05-03 21:59 | 47.47575 | 18.29719 | 25948 ft | 434 kts | 288° |
| 2026-05-03 21:59 | 47.48410 | 18.25444 | 26334 ft | 436 kts | 287° |
| 2026-05-03 22:00 | 47.49154 | 18.21095 | 26713 ft | 439 kts | 285° |
| 2026-05-03 22:00 | 47.49885 | 18.16680 | 27174 ft | 439 kts | 285° |
| 2026-05-03 22:00 | 47.50591 | 18.12367 | 27681 ft | 437 kts | 285° |
| 2026-05-03 22:00 | 47.51307 | 18.07993 | 28187 ft | 435 kts | 286° |
| 2026-05-03 22:01 | 47.52020 | 18.03632 | 28673 ft | 434 kts | 286° |
| 2026-05-03 22:01 | 47.52727 | 17.99311 | 29141 ft | 433 kts | 286° |
| 2026-05-03 22:01 | 47.53426 | 17.95029 | 29586 ft | 432 kts | 286° |
| 2026-05-03 22:01 | 47.54142 | 17.90677 | 30036 ft | 431 kts | 287° |
| 2026-05-03 22:02 | 47.54957 | 17.86464 | 30457 ft | 429 kts | 290° |
| 2026-05-03 22:02 | 47.55941 | 17.82304 | 30903 ft | 426 kts | 294° |
| 2026-05-03 22:02 | 47.57084 | 17.78256 | 31361 ft | 423 kts | 297° |
| 2026-05-03 22:02 | 47.58352 | 17.74401 | 31795 ft | 420 kts | 300° |
| 2026-05-03 22:03 | 47.59772 | 17.70633 | 32212 ft | 418 kts | 303° |
| 2026-05-03 22:03 | 47.61234 | 17.66949 | 32598 ft | 417 kts | 303° |
| 2026-05-03 22:03 | 47.62733 | 17.63197 | 32916 ft | 417 kts | 303° |
| 2026-05-03 22:03 | 47.64223 | 17.59460 | 33207 ft | 418 kts | 303° |
| 2026-05-03 22:04 | 47.65703 | 17.55739 | 33487 ft | 419 kts | 303° |
| 2026-05-03 22:04 | 47.67164 | 17.52055 | 33748 ft | 420 kts | 303° |
| 2026-05-03 22:04 | 47.68655 | 17.48287 | 33998 ft | 421 kts | 303° |
| 2026-05-03 22:04 | 47.70136 | 17.44537 | 34058 ft | 422 kts | 303° |
| 2026-05-03 22:05 | 47.73089 | 17.37037 | 34076 ft | 422 kts | 303° |
| 2026-05-03 22:05 | 47.76041 | 17.29504 | 34076 ft | 423 kts | 302° |
| 2026-05-03 22:06 | 47.79002 | 17.21916 | 34073 ft | 423 kts | 302° |
| 2026-05-03 22:06 | 47.81973 | 17.14423 | 34070 ft | 422 kts | 304° |
| 2026-05-03 22:07 | 47.85372 | 17.07322 | 34066 ft | 420 kts | 310° |
| 2026-05-03 22:07 | 47.89096 | 17.00549 | 34060 ft | 420 kts | 311° |
| 2026-05-03 22:08 | 47.92749 | 16.93942 | 34061 ft | 420 kts | 311° |
| 2026-05-03 22:08 | 47.96464 | 16.87194 | 34058 ft | 420 kts | 311° |
| 2026-05-03 22:09 | 48.00155 | 16.80470 | 34056 ft | 421 kts | 311° |
| 2026-05-03 22:10 | 48.05721 | 16.70292 | 34052 ft | 421 kts | 311° |
| 2026-05-03 22:10 | 48.09426 | 16.63499 | 34049 ft | 421 kts | 311° |
| 2026-05-03 22:11 | 48.13124 | 16.56732 | 34047 ft | 421 kts | 311° |
| 2026-05-03 22:11 | 48.16807 | 16.49983 | 34047 ft | 421 kts | 311° |
| 2026-05-03 22:12 | 48.20501 | 16.43172 | 34042 ft | 421 kts | 310° |
| 2026-05-03 22:12 | 48.24172 | 16.36372 | 34038 ft | 421 kts | 310° |
| 2026-05-03 22:13 | 48.27856 | 16.29510 | 34035 ft | 421 kts | 310° |
| 2026-05-03 22:13 | 48.31515 | 16.22676 | 34035 ft | 421 kts | 309° |
| 2026-05-03 22:14 | 48.35182 | 16.15819 | 34029 ft | 421 kts | 309° |
| 2026-05-03 22:14 | 48.38847 | 16.08956 | 34021 ft | 421 kts | 309° |
| 2026-05-03 22:15 | 48.42524 | 16.02053 | 34021 ft | 421 kts | 309° |
| 2026-05-03 22:15 | 48.46183 | 15.95167 | 34018 ft | 421 kts | 309° |
| 2026-05-03 22:16 | 48.49817 | 15.88311 | 34011 ft | 422 kts | 309° |
| 2026-05-03 22:16 | 48.53482 | 15.81380 | 34011 ft | 422 kts | 309° |
| 2026-05-03 22:17 | 48.57126 | 15.74471 | 34005 ft | 422 kts | 309° |
| 2026-05-03 22:17 | 48.60791 | 15.67503 | 34004 ft | 422 kts | 309° |
| 2026-05-03 22:18 | 48.64420 | 15.60587 | 34002 ft | 423 kts | 309° |
| 2026-05-03 22:18 | 48.68082 | 15.53587 | 34001 ft | 422 kts | 309° |
| 2026-05-03 22:19 | 48.71726 | 15.46602 | 33998 ft | 422 kts | 309° |
| 2026-05-03 22:19 | 48.75344 | 15.39648 | 33992 ft | 422 kts | 309° |
| 2026-05-03 22:20 | 48.79003 | 15.32595 | 33988 ft | 423 kts | 308° |
| 2026-05-03 22:20 | 48.82621 | 15.25578 | 33984 ft | 424 kts | 308° |
| 2026-05-03 22:21 | 48.86262 | 15.18518 | 33991 ft | 424 kts | 308° |
| 2026-05-03 22:21 | 48.89880 | 15.11491 | 33990 ft | 423 kts | 308° |
| 2026-05-03 22:22 | 48.93411 | 15.04334 | 33968 ft | 423 kts | 306° |
| 2026-05-03 22:22 | 48.96917 | 14.97122 | 33937 ft | 423 kts | 306° |
| 2026-05-03 22:23 | 49.00430 | 14.89887 | 33936 ft | 423 kts | 306° |
| 2026-05-03 22:23 | 49.03915 | 14.82695 | 33946 ft | 423 kts | 306° |
| 2026-05-03 22:24 | 49.07389 | 14.75516 | 33950 ft | 422 kts | 306° |
| 2026-05-03 22:24 | 49.10870 | 14.68305 | 33950 ft | 422 kts | 306° |
| 2026-05-03 22:25 | 49.14366 | 14.61103 | 33951 ft | 422 kts | 306° |
| 2026-05-03 22:25 | 49.17847 | 14.53888 | 33954 ft | 423 kts | 306° |
| 2026-05-03 22:26 | 49.21312 | 14.46665 | 33955 ft | 424 kts | 305° |
| 2026-05-03 22:26 | 49.24789 | 14.39389 | 33958 ft | 424 kts | 305° |
| 2026-05-03 22:27 | 49.28278 | 14.32056 | 33961 ft | 424 kts | 304° |
| 2026-05-03 22:27 | 49.31743 | 14.24734 | 33961 ft | 424 kts | 304° |
| 2026-05-03 22:28 | 49.35204 | 14.17411 | 33966 ft | 424 kts | 304° |
| 2026-05-03 22:28 | 49.38667 | 14.10072 | 33967 ft | 425 kts | 304° |
| 2026-05-03 22:29 | 49.42125 | 14.02726 | 33968 ft | 425 kts | 304° |
| 2026-05-03 22:29 | 49.45568 | 13.95395 | 33971 ft | 426 kts | 304° |
| 2026-05-03 22:30 | 49.49047 | 13.87969 | 33968 ft | 426 kts | 304° |
| 2026-05-03 22:30 | 49.52501 | 13.80572 | 33965 ft | 427 kts | 304° |
| 2026-05-03 22:31 | 49.55956 | 13.73158 | 33967 ft | 427 kts | 304° |
| 2026-05-03 22:31 | 49.59417 | 13.65705 | 33968 ft | 427 kts | 303° |
| 2026-05-03 22:32 | 49.62847 | 13.58300 | 33957 ft | 427 kts | 303° |
| 2026-05-03 22:32 | 49.66287 | 13.50854 | 33957 ft | 426 kts | 303° |
| 2026-05-03 22:33 | 49.69731 | 13.43386 | 33954 ft | 426 kts | 303° |
| 2026-05-03 22:33 | 49.73164 | 13.35922 | 33957 ft | 427 kts | 303° |
| 2026-05-03 22:34 | 49.76590 | 13.28426 | 33958 ft | 427 kts | 302° |
| 2026-05-03 22:34 | 49.80001 | 13.20941 | 33954 ft | 428 kts | 302° |
| 2026-05-03 22:35 | 49.83420 | 13.13429 | 33952 ft | 428 kts | 303° |
| 2026-05-03 22:35 | 49.86850 | 13.05881 | 33951 ft | 428 kts | 302° |
| 2026-05-03 22:36 | 49.90181 | 12.98522 | 33954 ft | 427 kts | 302° |
| 2026-05-03 22:36 | 49.93602 | 12.90945 | 33964 ft | 428 kts | 302° |
| 2026-05-03 22:37 | 49.96998 | 12.83399 | 33967 ft | 427 kts | 302° |
| 2026-05-03 22:37 | 50.00387 | 12.75851 | 33973 ft | 428 kts | 302° |
| 2026-05-03 22:38 | 50.03784 | 12.68262 | 33978 ft | 428 kts | 302° |
| 2026-05-03 22:38 | 50.07174 | 12.60668 | 33981 ft | 429 kts | 302° |
| 2026-05-03 22:39 | 50.10557 | 12.53068 | 33972 ft | 429 kts | 302° |
| 2026-05-03 22:39 | 50.13953 | 12.45468 | 33980 ft | 429 kts | 302° |
| 2026-05-03 22:40 | 50.17232 | 12.37752 | 33983 ft | 427 kts | 298° |
| 2026-05-03 22:40 | 50.19953 | 12.29550 | 33979 ft | 425 kts | 290° |
| 2026-05-03 22:41 | 50.22062 | 12.21042 | 33980 ft | 423 kts | 286° |
| 2026-05-03 22:41 | 50.24023 | 12.12392 | 33979 ft | 424 kts | 286° |
| 2026-05-03 22:42 | 50.26003 | 12.03697 | 33986 ft | 424 kts | 286° |
| 2026-05-03 22:42 | 50.27991 | 11.95057 | 33994 ft | 424 kts | 287° |
| 2026-05-03 22:43 | 50.29990 | 11.86377 | 33998 ft | 424 kts | 286° |
| 2026-05-03 22:43 | 50.31966 | 11.77739 | 34000 ft | 424 kts | 286° |
| 2026-05-03 22:44 | 50.33940 | 11.69045 | 34001 ft | 424 kts | 286° |
| 2026-05-03 22:44 | 50.35899 | 11.60384 | 33997 ft | 424 kts | 286° |
| 2026-05-03 22:45 | 50.37853 | 11.51706 | 33992 ft | 425 kts | 285° |
| 2026-05-03 22:45 | 50.39803 | 11.42988 | 33987 ft | 425 kts | 285° |
| 2026-05-03 22:46 | 50.41753 | 11.34247 | 33984 ft | 424 kts | 285° |
| 2026-05-03 22:46 | 50.43693 | 11.25534 | 33983 ft | 424 kts | 285° |
| 2026-05-03 22:47 | 50.45623 | 11.16822 | 33984 ft | 425 kts | 284° |
| 2026-05-03 22:47 | 50.47541 | 11.08113 | 33983 ft | 426 kts | 284° |
| 2026-05-03 22:48 | 50.49470 | 10.99319 | 33981 ft | 426 kts | 284° |
| 2026-05-03 22:48 | 50.51388 | 10.90515 | 33982 ft | 426 kts | 284° |
| 2026-05-03 22:49 | 50.53295 | 10.81744 | 33978 ft | 426 kts | 284° |
| 2026-05-03 22:49 | 50.55287 | 10.72941 | 33976 ft | 425 kts | 285° |
| 2026-05-03 22:50 | 50.57258 | 10.64275 | 33970 ft | 424 kts | 285° |
| 2026-05-03 22:50 | 50.59233 | 10.55527 | 33969 ft | 424 kts | 285° |
| 2026-05-03 22:51 | 50.61212 | 10.46768 | 33966 ft | 425 kts | 285° |
| 2026-05-03 22:51 | 50.63008 | 10.37992 | 33960 ft | 419 kts | 277° |
| 2026-05-03 22:52 | 50.63429 | 10.28973 | 33961 ft | 410 kts | 262° |
| 2026-05-03 22:52 | 50.62315 | 10.20218 | 33963 ft | 411 kts | 248° |
| 2026-05-03 22:53 | 50.59840 | 10.11996 | 33705 ft | 418 kts | 239° |
| 2026-05-03 22:53 | 50.58474 | 10.08042 | 33280 ft | 416 kts | 239° |
| 2026-05-03 22:53 | 50.57097 | 10.04075 | 32739 ft | 413 kts | 239° |
| 2026-05-03 22:53 | 50.55785 | 10.00031 | 32108 ft | 412 kts | 242° |
| 2026-05-03 22:54 | 50.54626 | 9.95965 | 31468 ft | 412 kts | 245° |
| 2026-05-03 22:54 | 50.53595 | 9.91796 | 30775 ft | 413 kts | 248° |
| 2026-05-03 22:54 | 50.52697 | 9.87530 | 30042 ft | 414 kts | 251° |
| 2026-05-03 22:54 | 50.51895 | 9.83155 | 29292 ft | 415 kts | 251° |
| 2026-05-03 22:55 | 50.51112 | 9.78836 | 28521 ft | 416 kts | 252° |
| 2026-05-03 22:55 | 50.50323 | 9.74474 | 27984 ft | 415 kts | 252° |
| 2026-05-03 22:55 | 50.49562 | 9.70131 | 27512 ft | 412 kts | 252° |
| 2026-05-03 22:55 | 50.48818 | 9.65786 | 27017 ft | 409 kts | 253° |
| 2026-05-03 22:56 | 50.48092 | 9.61545 | 26521 ft | 405 kts | 253° |
| 2026-05-03 22:56 | 50.47360 | 9.57309 | 26042 ft | 401 kts | 252° |
| 2026-05-03 22:56 | 50.46594 | 9.53153 | 25565 ft | 398 kts | 252° |
| 2026-05-03 22:56 | 50.45800 | 9.48976 | 25071 ft | 394 kts | 251° |
| 2026-05-03 22:57 | 50.45027 | 9.44916 | 24587 ft | 391 kts | 252° |
| 2026-05-03 22:57 | 50.44251 | 9.40847 | 24101 ft | 388 kts | 252° |
| 2026-05-03 22:57 | 50.43478 | 9.36794 | 23617 ft | 384 kts | 252° |
| 2026-05-03 22:57 | 50.42717 | 9.32800 | 23139 ft | 381 kts | 251° |
| 2026-05-03 22:58 | 50.41965 | 9.28840 | 22656 ft | 378 kts | 251° |
| 2026-05-03 22:58 | 50.41195 | 9.24920 | 22172 ft | 375 kts | 250° |
| 2026-05-03 22:58 | 50.40337 | 9.21112 | 21691 ft | 372 kts | 248° |
| 2026-05-03 22:58 | 50.39456 | 9.17312 | 21211 ft | 369 kts | 248° |
| 2026-05-03 22:59 | 50.38580 | 9.13529 | 20724 ft | 367 kts | 249° |
| 2026-05-03 22:59 | 50.37722 | 9.09826 | 20246 ft | 365 kts | 249° |
| 2026-05-03 22:59 | 50.36848 | 9.06065 | 19761 ft | 363 kts | 248° |
| 2026-05-03 22:59 | 50.35989 | 9.02377 | 19289 ft | 360 kts | 248° |
| 2026-05-03 23:00 | 50.35133 | 8.98710 | 18822 ft | 358 kts | 248° |
| 2026-05-03 23:00 | 50.34280 | 8.95061 | 18351 ft | 356 kts | 248° |
| 2026-05-03 23:00 | 50.33334 | 8.91496 | 17871 ft | 353 kts | 239° |
| 2026-05-03 23:00 | 50.31798 | 8.88552 | 17397 ft | 350 kts | 221° |
| 2026-05-03 23:01 | 50.29757 | 8.86502 | 16923 ft | 350 kts | 205° |
| 2026-05-03 23:01 | 50.27385 | 8.85506 | 16435 ft | 352 kts | 188° |
| 2026-05-03 23:01 | 50.24941 | 8.85686 | 15940 ft | 355 kts | 171° |
| 2026-05-03 23:01 | 50.22639 | 8.87027 | 15446 ft | 360 kts | 153° |
| 2026-05-03 23:02 | 50.20663 | 8.89482 | 14962 ft | 364 kts | 135° |
| 2026-05-03 23:02 | 50.19277 | 8.92795 | 14486 ft | 368 kts | 116° |
| 2026-05-03 23:02 | 50.18628 | 8.96681 | 14003 ft | 371 kts | 96° |
| 2026-05-03 23:02 | 50.18804 | 9.00649 | 13542 ft | 371 kts | 77° |
| 2026-05-03 23:03 | 50.19795 | 9.04396 | 13072 ft | 370 kts | 57° |
| 2026-05-03 23:03 | 50.21453 | 9.07361 | 12624 ft | 367 kts | 38° |
| 2026-05-03 23:03 | 50.23649 | 9.09436 | 12181 ft | 363 kts | 24° |
| 2026-05-03 23:03 | 50.25869 | 9.11251 | 11727 ft | 363 kts | 34° |
| 2026-05-03 23:04 | 50.27624 | 9.14055 | 11279 ft | 361 kts | 56° |
| 2026-05-03 23:04 | 50.28714 | 9.17584 | 10858 ft | 358 kts | 70° |
| 2026-05-03 23:04 | 50.29529 | 9.21216 | 10447 ft | 355 kts | 72° |
| 2026-05-03 23:04 | 50.30310 | 9.24815 | 10320 ft | 341 kts | 72° |
| 2026-05-03 23:05 | 50.31073 | 9.28252 | 10232 ft | 327 kts | 72° |
| 2026-05-03 23:05 | 50.31757 | 9.31582 | 10126 ft | 313 kts | 81° |
| 2026-05-03 23:05 | 50.31651 | 9.34789 | 10025 ft | 291 kts | 114° |
| 2026-05-03 23:05 | 50.30594 | 9.37357 | 9872 ft | 273 kts | 142° |
| 2026-05-03 23:06 | 50.29024 | 9.38852 | 9572 ft | 261 kts | 165° |
| 2026-05-03 23:06 | 50.27262 | 9.39320 | 9258 ft | 252 kts | 187° |
| 2026-05-03 23:06 | 50.25603 | 9.38651 | 8964 ft | 245 kts | 210° |
| 2026-05-03 23:06 | 50.24277 | 9.37001 | 8653 ft | 242 kts | 232° |
| 2026-05-03 23:07 | 50.23475 | 9.34726 | 8347 ft | 242 kts | 246° |
| 2026-05-03 23:07 | 50.22824 | 9.32287 | 8046 ft | 242 kts | 246° |
| 2026-05-03 23:07 | 50.22169 | 9.29858 | 7746 ft | 241 kts | 246° |
| 2026-05-03 23:07 | 50.21512 | 9.27424 | 7448 ft | 241 kts | 246° |
| 2026-05-03 23:08 | 50.20869 | 9.25045 | 7157 ft | 240 kts | 246° |
| 2026-05-03 23:08 | 50.20225 | 9.22663 | 6867 ft | 239 kts | 246° |
| 2026-05-03 23:08 | 50.19577 | 9.20273 | 6579 ft | 237 kts | 246° |
| 2026-05-03 23:08 | 50.18930 | 9.17890 | 6290 ft | 236 kts | 246° |
| 2026-05-03 23:09 | 50.18294 | 9.15548 | 6010 ft | 235 kts | 247° |
| 2026-05-03 23:09 | 50.17664 | 9.13231 | 5733 ft | 234 kts | 247° |
| 2026-05-03 23:09 | 50.17028 | 9.10894 | 5455 ft | 232 kts | 247° |
| 2026-05-03 23:09 | 50.16396 | 9.08571 | 5178 ft | 231 kts | 247° |
| 2026-05-03 23:10 | 50.15767 | 9.06268 | 4900 ft | 230 kts | 247° |
| 2026-05-03 23:10 | 50.15141 | 9.03971 | 4625 ft | 229 kts | 247° |
| 2026-05-03 23:10 | 50.14519 | 9.01693 | 4350 ft | 228 kts | 247° |
| 2026-05-03 23:10 | 50.13895 | 8.99412 | 4075 ft | 227 kts | 247° |
| 2026-05-03 23:11 | 50.13293 | 8.97160 | 3943 ft | 219 kts | 249° |
| 2026-05-03 23:11 | 50.12765 | 8.94984 | 3941 ft | 212 kts | 250° |
| 2026-05-03 23:11 | 50.12254 | 8.92839 | 3938 ft | 211 kts | 250° |
| 2026-05-03 23:11 | 50.11733 | 8.90673 | 3941 ft | 211 kts | 249° |
| 2026-05-03 23:12 | 50.11220 | 8.88559 | 3933 ft | 206 kts | 249° |
| 2026-05-03 23:12 | 50.10724 | 8.86520 | 3905 ft | 191 kts | 249° |
| 2026-05-03 23:12 | 50.10265 | 8.84636 | 3830 ft | 180 kts | 250° |
| 2026-05-03 23:12 | 50.09843 | 8.82900 | 3623 ft | 165 kts | 250° |
| 2026-05-03 23:13 | 50.09451 | 8.81288 | 3380 ft | 153 kts | 250° |
| 2026-05-03 23:13 | 50.09091 | 8.79802 | 3154 ft | 142 kts | 250° |
| 2026-05-03 23:13 | 50.08743 | 8.78364 | 3006 ft | 141 kts | 250° |
| 2026-05-03 23:13 | 50.08405 | 8.76966 | 2801 ft | 132 kts | 250° |
| 2026-05-03 23:14 | 50.08094 | 8.75677 | 2604 ft | 124 kts | 250° |
| 2026-05-03 23:14 | 50.07787 | 8.74408 | 2455 ft | 125 kts | 250° |
| 2026-05-03 23:14 | 50.07483 | 8.73145 | 2299 ft | 125 kts | 250° |
| 2026-05-03 23:14 | 50.07174 | 8.71864 | 2143 ft | 125 kts | 250° |
| 2026-05-03 23:15 | 50.06868 | 8.70594 | 1981 ft | 126 kts | 250° |
| 2026-05-03 23:15 | 50.06557 | 8.69302 | 1810 ft | 126 kts | 250° |
| 2026-05-03 23:15 | 50.06252 | 8.68031 | 1644 ft | 127 kts | 250° |
| 2026-05-03 23:15 | 50.05935 | 8.66715 | 1469 ft | 128 kts | 250° |
| 2026-05-03 23:16 | 50.05626 | 8.65428 | 1296 ft | 129 kts | 250° |
| 2026-05-03 23:16 | 50.05309 | 8.64105 | 1116 ft | 130 kts | 249° |
| 2026-05-03 23:16 | 50.04991 | 8.62776 | 942 ft | 131 kts | 249° |
| 2026-05-03 23:16 | 50.04669 | 8.61429 | 764 ft | 131 kts | 249° |
| 2026-05-03 23:17 | 50.04356 | 8.60083 | 601 ft | 132 kts | 250° |
| 2026-05-03 23:17 | 50.04032 | 8.58749 | 412 ft | 133 kts | 249° |
| 2026-05-03 23:17 | 50.03712 | 8.57452 | 347 ft | 114 kts | 251° |
| 2026-05-03 23:17 | 50.03484 | 8.56496 | 340 ft | 74 kts | 252° |
| 2026-05-03 23:18 | 50.03331 | 8.55871 | 336 ft | 46 kts | 249° |
| 2026-05-03 23:18 | 50.03209 | 8.55552 | 333 ft | 25 kts | 233° |
| 2026-05-03 23:18 | 50.03069 | 8.55473 | 335 ft | 21 kts | 133° |
| 2026-05-03 23:18 | 50.03034 | 8.55638 | 336 ft | 16 kts | 140° |
| 2026-05-03 23:19 | 50.02956 | 8.55641 | 338 ft | 3 kts | 238° |